sensor_id;sensor_type;location;lat;lon;timestamp;temperature;humidity
68924;DHT22;55961;52.156;20.942;2024-02-21T00:02:17;4.00;99.90
68924;DHT22;55961;52.156;20.942;2024-02-21T00:04:45;4.00;99.90
68924;DHT22;55961;52.156;20.942;2024-02-21T00:07:11;4.00;99.90
68924;DHT22;55961;52.156;20.942;2024-02-21T00:09:37;4.00;99.90
68924;DHT22;55961;52.156;20.942;2024-02-21T00:12:06;4.00;99.90
68924;DHT22;55961;52.156;20.942;2024-02-21T00:14:32;4.00;99.90
68924;DHT22;55961;52.156;20.942;2024-02-21T00:16:58;4.00;99.90
68924;DHT22;55961;52.156;20.942;2024-02-21T00:19:26;4.00;99.90
68924;DHT22;55961;52.156;20.942;2024-02-21T00:21:52;4.00;99.90
68924;DHT22;55961;52.156;20.942;2024-02-21T00:24:18;4.00;99.90
68924;DHT22;55961;52.156;20.942;2024-02-21T00:26:46;4.00;99.90
68924;DHT22;55961;52.156;20.942;2024-02-21T00:29:12;4.10;99.90
68924;DHT22;55961;52.156;20.942;2024-02-21T00:31:38;4.10;99.90
68924;DHT22;55961;52.156;20.942;2024-02-21T00:34:04;4.10;99.90
68924;DHT22;55961;52.156;20.942;2024-02-21T00:36:30;4.10;99.90
68924;DHT22;55961;52.156;20.942;2024-02-21T00:38:56;4.10;99.90
68924;DHT22;55961;52.156;20.942;2024-02-21T00:41:24;4.20;99.90
68924;DHT22;55961;52.156;20.942;2024-02-21T00:43:50;4.20;99.90
68924;DHT22;55961;52.156;20.942;2024-02-21T00:46:18;4.20;99.90
68924;DHT22;55961;52.156;20.942;2024-02-21T00:48:47;4.20;99.90
68924;DHT22;55961;52.156;20.942;2024-02-21T00:51:13;4.20;99.90
68924;DHT22;55961;52.156;20.942;2024-02-21T00:53:39;4.30;99.90
68924;DHT22;55961;52.156;20.942;2024-02-21T00:56:06;4.30;99.90
68924;DHT22;55961;52.156;20.942;2024-02-21T00:58:31;4.30;99.90
68924;DHT22;55961;52.156;20.942;2024-02-21T01:00:58;4.30;99.90
68924;DHT22;55961;52.156;20.942;2024-02-21T01:03:26;4.30;99.90
68924;DHT22;55961;52.156;20.942;2024-02-21T01:05:54;4.40;99.90
68924;DHT22;55961;52.156;20.942;2024-02-21T01:08:20;4.40;99.90
68924;DHT22;55961;52.156;20.942;2024-02-21T01:10:50;4.40;99.90
68924;DHT22;55961;52.156;20.942;2024-02-21T01:13:19;4.40;99.90
68924;DHT22;55961;52.156;20.942;2024-02-21T01:15:45;4.40;99.90
68924;DHT22;55961;52.156;20.942;2024-02-21T01:18:11;4.40;99.90
68924;DHT22;55961;52.156;20.942;2024-02-21T01:20:37;4.40;99.90
68924;DHT22;55961;52.156;20.942;2024-02-21T01:23:03;4.40;99.90
68924;DHT22;55961;52.156;20.942;2024-02-21T01:25:29;4.50;99.90
68924;DHT22;55961;52.156;20.942;2024-02-21T01:27:55;4.50;99.90
68924;DHT22;55961;52.156;20.942;2024-02-21T01:30:21;4.50;99.90
68924;DHT22;55961;52.156;20.942;2024-02-21T01:32:49;4.50;99.90
68924;DHT22;55961;52.156;20.942;2024-02-21T01:35:15;4.50;99.90
68924;DHT22;55961;52.156;20.942;2024-02-21T01:37:41;4.50;99.90
68924;DHT22;55961;52.156;20.942;2024-02-21T01:40:08;4.50;99.90
68924;DHT22;55961;52.156;20.942;2024-02-21T01:42:38;4.50;99.90
68924;DHT22;55961;52.156;20.942;2024-02-21T01:45:05;4.50;99.90
68924;DHT22;55961;52.156;20.942;2024-02-21T01:47:33;4.50;99.90
68924;DHT22;55961;52.156;20.942;2024-02-21T01:50:00;4.50;99.90
68924;DHT22;55961;52.156;20.942;2024-02-21T01:52:29;4.60;99.90
68924;DHT22;55961;52.156;20.942;2024-02-21T01:54:56;4.60;99.90
68924;DHT22;55961;52.156;20.942;2024-02-21T01:57:23;4.50;99.90
68924;DHT22;55961;52.156;20.942;2024-02-21T01:59:49;4.60;99.90
68924;DHT22;55961;52.156;20.942;2024-02-21T02:02:18;4.60;99.90
68924;DHT22;55961;52.156;20.942;2024-02-21T02:04:44;4.60;99.90
68924;DHT22;55961;52.156;20.942;2024-02-21T02:07:10;4.60;99.90
68924;DHT22;55961;52.156;20.942;2024-02-21T02:09:36;4.60;99.90
68924;DHT22;55961;52.156;20.942;2024-02-21T02:12:03;4.60;99.90
68924;DHT22;55961;52.156;20.942;2024-02-21T02:14:31;4.60;99.90
68924;DHT22;55961;52.156;20.942;2024-02-21T02:16:57;4.70;99.90
68924;DHT22;55961;52.156;20.942;2024-02-21T02:19:24;4.60;99.90
68924;DHT22;55961;52.156;20.942;2024-02-21T02:21:54;4.70;99.90
68924;DHT22;55961;52.156;20.942;2024-02-21T02:24:24;4.70;99.90
68924;DHT22;55961;52.156;20.942;2024-02-21T02:26:51;4.70;99.90
68924;DHT22;55961;52.156;20.942;2024-02-21T02:29:18;4.70;99.90
68924;DHT22;55961;52.156;20.942;2024-02-21T02:31:45;4.70;99.90
68924;DHT22;55961;52.156;20.942;2024-02-21T02:34:11;4.70;99.90
68924;DHT22;55961;52.156;20.942;2024-02-21T02:36:37;4.70;99.90
68924;DHT22;55961;52.156;20.942;2024-02-21T02:39:06;4.70;99.90
68924;DHT22;55961;52.156;20.942;2024-02-21T02:41:37;4.70;99.90
68924;DHT22;55961;52.156;20.942;2024-02-21T02:44:03;4.80;99.90
68924;DHT22;55961;52.156;20.942;2024-02-21T02:46:31;4.80;99.90
68924;DHT22;55961;52.156;20.942;2024-02-21T02:48:57;4.80;99.90
68924;DHT22;55961;52.156;20.942;2024-02-21T02:51:23;4.80;99.90
68924;DHT22;55961;52.156;20.942;2024-02-21T02:53:49;4.80;99.90
68924;DHT22;55961;52.156;20.942;2024-02-21T02:56:16;4.80;99.90
68924;DHT22;55961;52.156;20.942;2024-02-21T02:58:44;4.80;99.90
68924;DHT22;55961;52.156;20.942;2024-02-21T03:01:09;4.80;99.90
68924;DHT22;55961;52.156;20.942;2024-02-21T03:03:38;4.80;99.90
68924;DHT22;55961;52.156;20.942;2024-02-21T03:06:04;4.80;99.90
68924;DHT22;55961;52.156;20.942;2024-02-21T03:08:30;4.80;99.90
68924;DHT22;55961;52.156;20.942;2024-02-21T03:10:56;4.80;99.90
68924;DHT22;55961;52.156;20.942;2024-02-21T03:13:23;4.80;99.90
68924;DHT22;55961;52.156;20.942;2024-02-21T03:15:49;4.80;99.90
68924;DHT22;55961;52.156;20.942;2024-02-21T03:18:15;4.80;99.90
68924;DHT22;55961;52.156;20.942;2024-02-21T03:20:43;4.80;99.90
68924;DHT22;55961;52.156;20.942;2024-02-21T03:23:09;4.80;99.90
68924;DHT22;55961;52.156;20.942;2024-02-21T03:25:35;4.80;99.90
68924;DHT22;55961;52.156;20.942;2024-02-21T03:28:01;4.80;99.90
68924;DHT22;55961;52.156;20.942;2024-02-21T03:30:27;4.80;99.90
68924;DHT22;55961;52.156;20.942;2024-02-21T03:32:54;4.80;99.90
68924;DHT22;55961;52.156;20.942;2024-02-21T03:35:19;4.80;99.90
68924;DHT22;55961;52.156;20.942;2024-02-21T03:37:46;4.70;99.90
68924;DHT22;55961;52.156;20.942;2024-02-21T03:40:11;4.70;99.90
68924;DHT22;55961;52.156;20.942;2024-02-21T03:42:38;4.70;99.90
68924;DHT22;55961;52.156;20.942;2024-02-21T03:45:04;4.70;99.90
68924;DHT22;55961;52.156;20.942;2024-02-21T03:47:30;4.70;99.90
68924;DHT22;55961;52.156;20.942;2024-02-21T03:49:59;4.70;99.90
68924;DHT22;55961;52.156;20.942;2024-02-21T03:52:26;4.70;99.90
68924;DHT22;55961;52.156;20.942;2024-02-21T03:54:51;4.70;99.90
68924;DHT22;55961;52.156;20.942;2024-02-21T03:57:18;4.70;99.90
68924;DHT22;55961;52.156;20.942;2024-02-21T03:59:43;4.60;99.90
68924;DHT22;55961;52.156;20.942;2024-02-21T04:02:09;4.70;99.90
68924;DHT22;55961;52.156;20.942;2024-02-21T04:04:35;4.60;99.90
68924;DHT22;55961;52.156;20.942;2024-02-21T04:07:05;4.60;99.90
68924;DHT22;55961;52.156;20.942;2024-02-21T04:09:34;4.60;99.90
68924;DHT22;55961;52.156;20.942;2024-02-21T04:12:02;4.60;99.90
68924;DHT22;55961;52.156;20.942;2024-02-21T04:14:28;4.60;99.90
68924;DHT22;55961;52.156;20.942;2024-02-21T04:16:54;4.60;99.90
68924;DHT22;55961;52.156;20.942;2024-02-21T04:19:20;4.60;99.90
68924;DHT22;55961;52.156;20.942;2024-02-21T04:21:46;4.60;99.90
68924;DHT22;55961;52.156;20.942;2024-02-21T04:24:12;4.70;99.90
68924;DHT22;55961;52.156;20.942;2024-02-21T04:26:38;4.70;99.90
68924;DHT22;55961;52.156;20.942;2024-02-21T04:29:05;4.70;99.90
68924;DHT22;55961;52.156;20.942;2024-02-21T04:31:32;4.70;99.90
68924;DHT22;55961;52.156;20.942;2024-02-21T04:33:58;4.70;99.90
68924;DHT22;55961;52.156;20.942;2024-02-21T04:36:26;4.70;99.90
68924;DHT22;55961;52.156;20.942;2024-02-21T04:38:51;4.70;99.90
68924;DHT22;55961;52.156;20.942;2024-02-21T04:41:20;4.70;99.90
68924;DHT22;55961;52.156;20.942;2024-02-21T04:43:46;4.70;99.90
68924;DHT22;55961;52.156;20.942;2024-02-21T04:46:15;4.70;99.90
68924;DHT22;55961;52.156;20.942;2024-02-21T04:48:41;4.80;99.90
68924;DHT22;55961;52.156;20.942;2024-02-21T04:51:07;4.70;99.90
68924;DHT22;55961;52.156;20.942;2024-02-21T04:53:38;4.80;99.90
68924;DHT22;55961;52.156;20.942;2024-02-21T04:56:05;4.80;99.90
68924;DHT22;55961;52.156;20.942;2024-02-21T04:58:31;4.80;99.90
68924;DHT22;55961;52.156;20.942;2024-02-21T05:00:59;4.80;99.90
68924;DHT22;55961;52.156;20.942;2024-02-21T05:03:25;4.80;99.90
68924;DHT22;55961;52.156;20.942;2024-02-21T05:05:51;4.80;99.90
68924;DHT22;55961;52.156;20.942;2024-02-21T05:08:17;4.80;99.90
68924;DHT22;55961;52.156;20.942;2024-02-21T05:10:45;4.80;99.90
68924;DHT22;55961;52.156;20.942;2024-02-21T05:13:11;4.80;99.90
68924;DHT22;55961;52.156;20.942;2024-02-21T05:15:40;4.80;99.90
68924;DHT22;55961;52.156;20.942;2024-02-21T05:18:05;4.80;99.90
68924;DHT22;55961;52.156;20.942;2024-02-21T05:20:33;4.80;99.90
68924;DHT22;55961;52.156;20.942;2024-02-21T05:22:59;4.80;99.90
68924;DHT22;55961;52.156;20.942;2024-02-21T05:25:25;4.80;99.90
68924;DHT22;55961;52.156;20.942;2024-02-21T05:27:51;4.80;99.90
68924;DHT22;55961;52.156;20.942;2024-02-21T05:30:19;4.80;99.90
68924;DHT22;55961;52.156;20.942;2024-02-21T05:32:48;4.80;99.90
68924;DHT22;55961;52.156;20.942;2024-02-21T05:35:14;4.80;99.90
68924;DHT22;55961;52.156;20.942;2024-02-21T05:37:40;4.80;99.90
68924;DHT22;55961;52.156;20.942;2024-02-21T05:40:06;4.80;99.90
68924;DHT22;55961;52.156;20.942;2024-02-21T05:42:35;4.80;99.90
68924;DHT22;55961;52.156;20.942;2024-02-21T05:45:02;4.80;99.90
68924;DHT22;55961;52.156;20.942;2024-02-21T05:47:30;4.80;99.90
68924;DHT22;55961;52.156;20.942;2024-02-21T05:49:59;4.80;99.90
68924;DHT22;55961;52.156;20.942;2024-02-21T05:52:24;4.80;99.90
68924;DHT22;55961;52.156;20.942;2024-02-21T05:54:51;4.80;99.90
68924;DHT22;55961;52.156;20.942;2024-02-21T05:57:19;4.80;99.90
68924;DHT22;55961;52.156;20.942;2024-02-21T05:59:45;4.80;99.90
68924;DHT22;55961;52.156;20.942;2024-02-21T06:02:11;4.80;99.90
68924;DHT22;55961;52.156;20.942;2024-02-21T06:04:40;4.80;99.90
68924;DHT22;55961;52.156;20.942;2024-02-21T06:07:13;4.80;99.90
68924;DHT22;55961;52.156;20.942;2024-02-21T06:09:39;4.80;99.90
68924;DHT22;55961;52.156;20.942;2024-02-21T06:12:05;4.80;99.90
68924;DHT22;55961;52.156;20.942;2024-02-21T06:14:31;4.90;99.90
68924;DHT22;55961;52.156;20.942;2024-02-21T06:16:57;4.80;99.90
68924;DHT22;55961;52.156;20.942;2024-02-21T06:19:25;4.90;99.90
68924;DHT22;55961;52.156;20.942;2024-02-21T06:21:51;4.90;99.90
68924;DHT22;55961;52.156;20.942;2024-02-21T06:24:17;4.90;99.90
68924;DHT22;55961;52.156;20.942;2024-02-21T06:26:43;4.90;99.90
68924;DHT22;55961;52.156;20.942;2024-02-21T06:29:09;4.90;99.90
68924;DHT22;55961;52.156;20.942;2024-02-21T06:31:35;4.90;99.90
68924;DHT22;55961;52.156;20.942;2024-02-21T06:34:01;5.00;99.90
68924;DHT22;55961;52.156;20.942;2024-02-21T06:36:30;5.00;99.90
68924;DHT22;55961;52.156;20.942;2024-02-21T06:38:56;5.00;99.90
68924;DHT22;55961;52.156;20.942;2024-02-21T06:41:22;5.00;99.90
68924;DHT22;55961;52.156;20.942;2024-02-21T06:43:48;5.10;99.90
68924;DHT22;55961;52.156;20.942;2024-02-21T06:46:27;5.10;99.90
68924;DHT22;55961;52.156;20.942;2024-02-21T06:49:02;5.10;99.90
68924;DHT22;55961;52.156;20.942;2024-02-21T06:51:29;5.10;99.90
68924;DHT22;55961;52.156;20.942;2024-02-21T06:53:56;5.20;99.90
68924;DHT22;55961;52.156;20.942;2024-02-21T06:56:24;5.20;99.90
68924;DHT22;55961;52.156;20.942;2024-02-21T06:58:57;5.20;99.90
68924;DHT22;55961;52.156;20.942;2024-02-21T07:01:23;5.20;99.90
68924;DHT22;55961;52.156;20.942;2024-02-21T07:03:50;5.20;99.90
68924;DHT22;55961;52.156;20.942;2024-02-21T07:06:16;5.30;99.90
68924;DHT22;55961;52.156;20.942;2024-02-21T07:08:42;5.30;99.90
68924;DHT22;55961;52.156;20.942;2024-02-21T07:11:09;5.30;99.90
68924;DHT22;55961;52.156;20.942;2024-02-21T07:13:36;5.40;99.90
68924;DHT22;55961;52.156;20.942;2024-02-21T07:16:02;5.40;99.90
68924;DHT22;55961;52.156;20.942;2024-02-21T07:18:29;5.40;99.90
68924;DHT22;55961;52.156;20.942;2024-02-21T07:20:55;5.40;99.90
68924;DHT22;55961;52.156;20.942;2024-02-21T07:23:22;5.50;99.90
68924;DHT22;55961;52.156;20.942;2024-02-21T07:25:48;5.50;99.90
68924;DHT22;55961;52.156;20.942;2024-02-21T07:28:16;5.50;99.90
68924;DHT22;55961;52.156;20.942;2024-02-21T07:30:43;5.50;99.90
68924;DHT22;55961;52.156;20.942;2024-02-21T07:33:11;5.60;99.90
68924;DHT22;55961;52.156;20.942;2024-02-21T07:35:37;5.60;99.90
68924;DHT22;55961;52.156;20.942;2024-02-21T07:38:04;5.70;99.90
68924;DHT22;55961;52.156;20.942;2024-02-21T07:40:32;5.70;99.90
68924;DHT22;55961;52.156;20.942;2024-02-21T07:42:58;5.70;99.90
68924;DHT22;55961;52.156;20.942;2024-02-21T07:45:24;5.70;99.90
68924;DHT22;55961;52.156;20.942;2024-02-21T07:47:51;5.70;99.90
68924;DHT22;55961;52.156;20.942;2024-02-21T07:50:17;5.80;99.90
68924;DHT22;55961;52.156;20.942;2024-02-21T07:52:43;5.80;99.90
68924;DHT22;55961;52.156;20.942;2024-02-21T07:55:09;5.80;99.90
68924;DHT22;55961;52.156;20.942;2024-02-21T07:57:36;5.80;99.90
68924;DHT22;55961;52.156;20.942;2024-02-21T08:00:03;5.90;99.90
68924;DHT22;55961;52.156;20.942;2024-02-21T08:02:30;5.90;99.90
68924;DHT22;55961;52.156;20.942;2024-02-21T08:04:56;5.90;99.90
68924;DHT22;55961;52.156;20.942;2024-02-21T08:07:22;6.00;99.90
68924;DHT22;55961;52.156;20.942;2024-02-21T08:09:48;6.00;99.90
68924;DHT22;55961;52.156;20.942;2024-02-21T08:12:14;6.00;99.90
68924;DHT22;55961;52.156;20.942;2024-02-21T08:14:42;6.10;99.90
68924;DHT22;55961;52.156;20.942;2024-02-21T08:17:10;6.10;99.90
68924;DHT22;55961;52.156;20.942;2024-02-21T08:19:38;6.10;99.90
68924;DHT22;55961;52.156;20.942;2024-02-21T08:22:04;6.20;99.90
68924;DHT22;55961;52.156;20.942;2024-02-21T08:24:32;6.20;99.90
68924;DHT22;55961;52.156;20.942;2024-02-21T08:26:58;6.30;99.90
68924;DHT22;55961;52.156;20.942;2024-02-21T08:29:24;6.30;99.90
68924;DHT22;55961;52.156;20.942;2024-02-21T08:31:52;6.30;99.90
68924;DHT22;55961;52.156;20.942;2024-02-21T08:34:18;6.30;99.90
68924;DHT22;55961;52.156;20.942;2024-02-21T08:36:44;6.30;99.90
68924;DHT22;55961;52.156;20.942;2024-02-21T08:39:10;6.40;99.90
68924;DHT22;55961;52.156;20.942;2024-02-21T08:41:36;6.40;99.90
68924;DHT22;55961;52.156;20.942;2024-02-21T08:44:03;6.50;99.90
68924;DHT22;55961;52.156;20.942;2024-02-21T08:46:29;6.50;99.90
68924;DHT22;55961;52.156;20.942;2024-02-21T08:48:55;6.60;99.90
68924;DHT22;55961;52.156;20.942;2024-02-21T08:51:21;6.60;99.90
68924;DHT22;55961;52.156;20.942;2024-02-21T08:53:48;6.70;99.90
68924;DHT22;55961;52.156;20.942;2024-02-21T08:56:14;6.70;99.90
68924;DHT22;55961;52.156;20.942;2024-02-21T08:58:40;6.80;99.90
68924;DHT22;55961;52.156;20.942;2024-02-21T09:01:07;6.80;99.90
68924;DHT22;55961;52.156;20.942;2024-02-21T09:03:37;6.90;99.90
68924;DHT22;55961;52.156;20.942;2024-02-21T09:06:07;6.90;99.90
68924;DHT22;55961;52.156;20.942;2024-02-21T09:08:34;7.00;99.90
68924;DHT22;55961;52.156;20.942;2024-02-21T09:11:00;7.00;99.90
68924;DHT22;55961;52.156;20.942;2024-02-21T09:13:29;7.00;99.90
68924;DHT22;55961;52.156;20.942;2024-02-21T09:15:56;7.10;99.90
68924;DHT22;55961;52.156;20.942;2024-02-21T09:18:24;7.10;99.90
68924;DHT22;55961;52.156;20.942;2024-02-21T09:20:56;7.20;99.90
68924;DHT22;55961;52.156;20.942;2024-02-21T09:23:24;7.20;99.90
68924;DHT22;55961;52.156;20.942;2024-02-21T09:25:52;7.20;99.90
68924;DHT22;55961;52.156;20.942;2024-02-21T09:28:25;7.30;99.90
68924;DHT22;55961;52.156;20.942;2024-02-21T09:30:53;7.30;99.90
68924;DHT22;55961;52.156;20.942;2024-02-21T09:33:21;7.30;99.90
68924;DHT22;55961;52.156;20.942;2024-02-21T09:35:47;7.30;99.90
68924;DHT22;55961;52.156;20.942;2024-02-21T09:38:14;7.30;99.90
68924;DHT22;55961;52.156;20.942;2024-02-21T09:40:40;7.30;99.90
68924;DHT22;55961;52.156;20.942;2024-02-21T09:43:08;7.30;99.90
68924;DHT22;55961;52.156;20.942;2024-02-21T09:45:34;7.30;99.90
68924;DHT22;55961;52.156;20.942;2024-02-21T09:48:30;7.30;99.90
68924;DHT22;55961;52.156;20.942;2024-02-21T09:51:02;7.30;99.90
68924;DHT22;55961;52.156;20.942;2024-02-21T09:53:32;7.30;99.90
68924;DHT22;55961;52.156;20.942;2024-02-21T09:55:59;7.40;99.90
68924;DHT22;55961;52.156;20.942;2024-02-21T09:58:26;7.40;99.90
68924;DHT22;55961;52.156;20.942;2024-02-21T10:00:54;7.40;99.90
68924;DHT22;55961;52.156;20.942;2024-02-21T10:03:19;7.40;99.90
68924;DHT22;55961;52.156;20.942;2024-02-21T10:05:49;7.50;99.90
68924;DHT22;55961;52.156;20.942;2024-02-21T10:08:18;7.50;99.90
68924;DHT22;55961;52.156;20.942;2024-02-21T10:10:46;7.50;99.90
68924;DHT22;55961;52.156;20.942;2024-02-21T10:13:28;7.50;99.90
68924;DHT22;55961;52.156;20.942;2024-02-21T10:18:27;7.60;99.70
68924;DHT22;55961;52.156;20.942;2024-02-21T10:23:26;7.60;99.30
68924;DHT22;55961;52.156;20.942;2024-02-21T10:25:52;7.60;99.20
68924;DHT22;55961;52.156;20.942;2024-02-21T10:28:18;7.70;99.20
68924;DHT22;55961;52.156;20.942;2024-02-21T10:30:56;7.80;98.70
68924;DHT22;55961;52.156;20.942;2024-02-21T10:33:24;7.80;98.70
68924;DHT22;55961;52.156;20.942;2024-02-21T10:35:51;7.80;98.60
68924;DHT22;55961;52.156;20.942;2024-02-21T10:38:17;7.80;98.50
68924;DHT22;55961;52.156;20.942;2024-02-21T10:40:43;7.80;99.10
68924;DHT22;55961;52.156;20.942;2024-02-21T10:43:14;7.90;98.20
68924;DHT22;55961;52.156;20.942;2024-02-21T10:45:45;7.80;97.90
68924;DHT22;55961;52.156;20.942;2024-02-21T10:48:13;7.90;98.10
68924;DHT22;55961;52.156;20.942;2024-02-21T10:50:58;7.90;98.10
68924;DHT22;55961;52.156;20.942;2024-02-21T10:53:47;7.90;98.80
68924;DHT22;55961;52.156;20.942;2024-02-21T10:56:30;7.90;98.50
68924;DHT22;55961;52.156;20.942;2024-02-21T10:59:01;7.90;99.00
68924;DHT22;55961;52.156;20.942;2024-02-21T11:01:28;7.90;99.10
68924;DHT22;55961;52.156;20.942;2024-02-21T11:03:59;7.90;98.90
68924;DHT22;55961;52.156;20.942;2024-02-21T11:06:27;7.90;98.60
68924;DHT22;55961;52.156;20.942;2024-02-21T11:09:06;7.90;98.50
68924;DHT22;55961;52.156;20.942;2024-02-21T11:11:40;7.90;98.60
68924;DHT22;55961;52.156;20.942;2024-02-21T11:14:07;7.90;98.10
68924;DHT22;55961;52.156;20.942;2024-02-21T11:16:41;7.90;97.60
68924;DHT22;55961;52.156;20.942;2024-02-21T11:19:19;7.90;98.50
68924;DHT22;55961;52.156;20.942;2024-02-21T11:21:46;7.90;99.10
68924;DHT22;55961;52.156;20.942;2024-02-21T11:24:28;7.90;99.40
68924;DHT22;55961;52.156;20.942;2024-02-21T11:29:44;7.90;99.70
68924;DHT22;55961;52.156;20.942;2024-02-21T11:32:10;7.80;99.90
68924;DHT22;55961;52.156;20.942;2024-02-21T11:34:37;7.80;99.40
68924;DHT22;55961;52.156;20.942;2024-02-21T11:37:18;7.80;99.90
68924;DHT22;55961;52.156;20.942;2024-02-21T11:39:43;7.80;99.90
68924;DHT22;55961;52.156;20.942;2024-02-21T11:42:10;7.80;99.90
68924;DHT22;55961;52.156;20.942;2024-02-21T11:44:39;7.80;99.90
68924;DHT22;55961;52.156;20.942;2024-02-21T11:47:23;7.80;99.90
68924;DHT22;55961;52.156;20.942;2024-02-21T11:49:51;7.80;99.90
68924;DHT22;55961;52.156;20.942;2024-02-21T11:52:23;7.70;99.90
68924;DHT22;55961;52.156;20.942;2024-02-21T11:54:55;7.70;99.90
68924;DHT22;55961;52.156;20.942;2024-02-21T11:57:29;7.70;99.90
68924;DHT22;55961;52.156;20.942;2024-02-21T11:59:55;7.70;99.90
68924;DHT22;55961;52.156;20.942;2024-02-21T12:02:21;7.70;99.90
68924;DHT22;55961;52.156;20.942;2024-02-21T12:04:48;7.60;99.90
68924;DHT22;55961;52.156;20.942;2024-02-21T12:07:17;7.60;99.90
68924;DHT22;55961;52.156;20.942;2024-02-21T12:09:44;7.60;99.90
68924;DHT22;55961;52.156;20.942;2024-02-21T12:12:10;7.60;99.90
68924;DHT22;55961;52.156;20.942;2024-02-21T12:14:39;7.60;99.90
68924;DHT22;55961;52.156;20.942;2024-02-21T12:17:05;7.60;99.90
68924;DHT22;55961;52.156;20.942;2024-02-21T12:19:32;7.60;99.90
68924;DHT22;55961;52.156;20.942;2024-02-21T12:21:59;7.50;99.90
68924;DHT22;55961;52.156;20.942;2024-02-21T12:24:27;7.50;99.90
68924;DHT22;55961;52.156;20.942;2024-02-21T12:26:56;7.50;99.90
68924;DHT22;55961;52.156;20.942;2024-02-21T12:29:24;7.50;99.90
68924;DHT22;55961;52.156;20.942;2024-02-21T12:31:51;7.50;99.90
68924;DHT22;55961;52.156;20.942;2024-02-21T12:34:17;7.50;99.90
68924;DHT22;55961;52.156;20.942;2024-02-21T12:36:46;7.50;99.90
68924;DHT22;55961;52.156;20.942;2024-02-21T12:39:15;7.50;99.90
68924;DHT22;55961;52.156;20.942;2024-02-21T12:41:42;7.50;99.90
68924;DHT22;55961;52.156;20.942;2024-02-21T12:44:10;7.50;99.90
68924;DHT22;55961;52.156;20.942;2024-02-21T12:46:41;7.50;99.90
68924;DHT22;55961;52.156;20.942;2024-02-21T12:49:07;7.50;99.90
68924;DHT22;55961;52.156;20.942;2024-02-21T12:51:36;7.50;99.90
68924;DHT22;55961;52.156;20.942;2024-02-21T12:54:03;7.50;99.90
68924;DHT22;55961;52.156;20.942;2024-02-21T12:56:29;7.50;99.90
68924;DHT22;55961;52.156;20.942;2024-02-21T12:58:57;7.50;99.90
68924;DHT22;55961;52.156;20.942;2024-02-21T13:01:25;7.40;99.90
68924;DHT22;55961;52.156;20.942;2024-02-21T13:03:52;7.40;99.90
68924;DHT22;55961;52.156;20.942;2024-02-21T13:06:18;7.40;99.90
68924;DHT22;55961;52.156;20.942;2024-02-21T13:08:44;7.40;99.90
68924;DHT22;55961;52.156;20.942;2024-02-21T13:11:12;7.40;99.90
68924;DHT22;55961;52.156;20.942;2024-02-21T13:13:39;7.40;99.90
68924;DHT22;55961;52.156;20.942;2024-02-21T13:16:05;7.40;99.90
68924;DHT22;55961;52.156;20.942;2024-02-21T13:18:31;7.40;99.90
68924;DHT22;55961;52.156;20.942;2024-02-21T13:20:58;7.40;99.90
68924;DHT22;55961;52.156;20.942;2024-02-21T13:23:26;7.40;99.90
68924;DHT22;55961;52.156;20.942;2024-02-21T13:25:52;7.40;99.90
68924;DHT22;55961;52.156;20.942;2024-02-21T13:28:20;7.40;99.90
68924;DHT22;55961;52.156;20.942;2024-02-21T13:30:46;7.40;99.90
68924;DHT22;55961;52.156;20.942;2024-02-21T13:33:14;7.40;99.90
68924;DHT22;55961;52.156;20.942;2024-02-21T13:35:44;7.40;99.90
68924;DHT22;55961;52.156;20.942;2024-02-21T13:38:10;7.40;99.90
68924;DHT22;55961;52.156;20.942;2024-02-21T13:40:42;7.40;99.90
68924;DHT22;55961;52.156;20.942;2024-02-21T13:43:08;7.40;99.90
68924;DHT22;55961;52.156;20.942;2024-02-21T13:45:38;7.40;99.90
68924;DHT22;55961;52.156;20.942;2024-02-21T13:48:07;7.30;99.90
68924;DHT22;55961;52.156;20.942;2024-02-21T13:50:36;7.30;99.90
68924;DHT22;55961;52.156;20.942;2024-02-21T13:53:11;7.30;99.90
68924;DHT22;55961;52.156;20.942;2024-02-21T13:55:37;7.30;99.90
68924;DHT22;55961;52.156;20.942;2024-02-21T13:58:04;7.30;99.90
68924;DHT22;55961;52.156;20.942;2024-02-21T14:00:30;7.30;99.90
68924;DHT22;55961;52.156;20.942;2024-02-21T14:02:58;7.30;99.90
68924;DHT22;55961;52.156;20.942;2024-02-21T14:05:27;7.30;99.90
68924;DHT22;55961;52.156;20.942;2024-02-21T14:07:53;7.30;99.90
68924;DHT22;55961;52.156;20.942;2024-02-21T14:10:23;7.30;99.90
68924;DHT22;55961;52.156;20.942;2024-02-21T14:12:53;7.30;99.90
68924;DHT22;55961;52.156;20.942;2024-02-21T14:15:26;7.20;99.90
68924;DHT22;55961;52.156;20.942;2024-02-21T14:17:54;7.30;99.90
68924;DHT22;55961;52.156;20.942;2024-02-21T14:20:21;7.30;99.90
68924;DHT22;55961;52.156;20.942;2024-02-21T14:22:47;7.30;99.90
68924;DHT22;55961;52.156;20.942;2024-02-21T14:25:13;7.30;99.90
68924;DHT22;55961;52.156;20.942;2024-02-21T14:27:41;7.30;99.90
68924;DHT22;55961;52.156;20.942;2024-02-21T14:30:11;7.30;99.90
68924;DHT22;55961;52.156;20.942;2024-02-21T14:32:37;7.30;99.90
68924;DHT22;55961;52.156;20.942;2024-02-21T14:35:03;7.30;99.90
68924;DHT22;55961;52.156;20.942;2024-02-21T14:37:29;7.30;99.90
68924;DHT22;55961;52.156;20.942;2024-02-21T14:39:55;7.30;99.90
68924;DHT22;55961;52.156;20.942;2024-02-21T14:42:21;7.30;99.90
68924;DHT22;55961;52.156;20.942;2024-02-21T14:44:47;7.30;99.90
68924;DHT22;55961;52.156;20.942;2024-02-21T14:47:13;7.30;99.90
68924;DHT22;55961;52.156;20.942;2024-02-21T14:49:39;7.30;99.90
68924;DHT22;55961;52.156;20.942;2024-02-21T14:52:05;7.30;99.90
68924;DHT22;55961;52.156;20.942;2024-02-21T14:54:31;7.30;99.90
68924;DHT22;55961;52.156;20.942;2024-02-21T14:56:58;7.30;99.90
68924;DHT22;55961;52.156;20.942;2024-02-21T14:59:24;7.30;99.90
68924;DHT22;55961;52.156;20.942;2024-02-21T15:01:50;7.30;99.90
68924;DHT22;55961;52.156;20.942;2024-02-21T15:04:18;7.30;99.90
68924;DHT22;55961;52.156;20.942;2024-02-21T15:06:44;7.30;99.90
68924;DHT22;55961;52.156;20.942;2024-02-21T15:09:11;7.30;99.90
68924;DHT22;55961;52.156;20.942;2024-02-21T15:11:47;7.30;99.90
68924;DHT22;55961;52.156;20.942;2024-02-21T15:14:13;7.30;99.90
68924;DHT22;55961;52.156;20.942;2024-02-21T15:16:39;7.30;99.90
68924;DHT22;55961;52.156;20.942;2024-02-21T15:19:08;7.30;99.90
68924;DHT22;55961;52.156;20.942;2024-02-21T15:21:40;7.20;99.90
68924;DHT22;55961;52.156;20.942;2024-02-21T15:24:06;7.20;99.90
68924;DHT22;55961;52.156;20.942;2024-02-21T15:26:32;7.20;99.90
68924;DHT22;55961;52.156;20.942;2024-02-21T15:28:58;7.20;99.90
68924;DHT22;55961;52.156;20.942;2024-02-21T15:31:24;7.20;99.90
68924;DHT22;55961;52.156;20.942;2024-02-21T15:33:53;7.20;99.90
68924;DHT22;55961;52.156;20.942;2024-02-21T15:36:19;7.20;99.90
68924;DHT22;55961;52.156;20.942;2024-02-21T15:38:47;7.20;99.90
68924;DHT22;55961;52.156;20.942;2024-02-21T15:41:14;7.20;99.90